createdAt,value
2018-08-12T00:00:53.397Z,16.35
2018-08-12T00:01:54.023Z,16.42
2018-08-12T00:02:53.396Z,16.24
2018-08-12T00:03:53.399Z,16.35
2018-08-12T00:04:53.399Z,16.32
2018-08-12T00:05:53.399Z,16.29
2018-08-12T00:06:53.397Z,16.28
2018-08-12T00:07:53.400Z,16.29
2018-08-12T00:08:53.399Z,16.29
2018-08-12T00:09:53.399Z,16.26
2018-08-12T00:10:53.398Z,16.29
2018-08-12T00:11:53.435Z,16.29
2018-08-12T00:12:53.400Z,16.24
2018-08-12T00:13:53.399Z,16.24
2018-08-12T00:14:53.400Z,16.17
2018-08-12T00:15:53.401Z,16.26
2018-08-12T00:16:53.399Z,16.24
2018-08-12T00:17:53.398Z,16.23
2018-08-12T00:18:53.899Z,16.20
2018-08-12T00:19:53.400Z,16.24
2018-08-12T00:20:53.397Z,16.15
2018-08-12T00:21:53.497Z,16.15
2018-08-12T00:22:53.398Z,16.12
2018-08-12T00:23:53.399Z,16.15
2018-08-12T00:24:53.400Z,16.13
2018-08-12T00:25:53.414Z,16.10
2018-08-12T00:26:53.400Z,16.16
2018-08-12T00:27:53.400Z,16.00
2018-08-12T00:28:53.429Z,16.09
2018-08-12T00:29:53.400Z,16.04
2018-08-12T00:30:53.401Z,15.91
2018-08-12T00:31:53.403Z,15.95
2018-08-12T00:32:53.402Z,15.90
2018-08-12T00:33:53.400Z,15.94
2018-08-12T00:34:53.409Z,15.88
2018-08-12T00:35:53.400Z,15.90
2018-08-12T00:36:53.399Z,15.88
2018-08-12T00:37:53.411Z,15.91
2018-08-12T00:38:53.488Z,15.91
2018-08-12T00:39:53.406Z,15.91
2018-08-12T00:40:53.400Z,15.95
2018-08-12T00:41:53.401Z,15.83
2018-08-12T00:42:53.401Z,15.79
2018-08-12T00:43:53.405Z,15.79
2018-08-12T00:44:53.399Z,15.79
2018-08-12T00:45:53.403Z,15.90
2018-08-12T00:46:53.402Z,15.84
2018-08-12T00:47:53.401Z,15.86
2018-08-12T00:48:53.400Z,15.88
2018-08-12T00:49:53.400Z,15.73
2018-08-12T00:50:53.439Z,15.73
2018-08-12T00:51:53.402Z,15.80
2018-08-12T00:52:53.400Z,15.80
2018-08-12T00:53:53.400Z,15.72
2018-08-12T00:54:53.404Z,15.77
2018-08-12T00:55:53.403Z,15.82
2018-08-12T00:56:53.400Z,15.76
2018-08-12T00:57:53.409Z,15.70
2018-08-12T00:58:53.409Z,15.75
2018-08-12T00:59:53.399Z,15.73
2018-08-12T01:00:53.398Z,15.80
2018-08-12T01:01:53.399Z,15.65
2018-08-12T01:02:53.399Z,15.68
2018-08-12T01:03:53.400Z,15.72
2018-08-12T01:04:53.397Z,15.62
2018-08-12T01:05:53.400Z,15.64
2018-08-12T01:06:53.399Z,15.58
2018-08-12T01:07:53.403Z,15.59
2018-08-12T01:08:53.404Z,15.58
2018-08-12T01:09:53.400Z,15.59
2018-08-12T01:10:53.400Z,15.59
2018-08-12T01:11:53.412Z,15.59
2018-08-12T01:12:53.397Z,15.59
2018-08-12T01:13:53.395Z,15.58
2018-08-12T01:14:53.399Z,15.58
2018-08-12T01:15:53.396Z,15.59
2018-08-12T01:16:53.396Z,15.57
2018-08-12T01:17:53.395Z,15.61
2018-08-12T01:18:53.395Z,15.55
2018-08-12T01:19:53.396Z,15.62
2018-08-12T01:20:53.398Z,15.59
2018-08-12T01:21:53.393Z,15.62
2018-08-12T01:22:53.394Z,15.55
2018-08-12T01:23:53.395Z,15.54
2018-08-12T01:24:53.395Z,15.52
2018-08-12T01:25:53.482Z,15.58
2018-08-12T01:26:53.413Z,15.58
2018-08-12T01:27:53.392Z,15.61
2018-08-12T01:28:53.394Z,15.52
2018-08-12T01:29:53.390Z,15.55
2018-08-12T01:30:53.407Z,15.46
2018-08-12T01:31:53.390Z,15.55
2018-08-12T01:32:53.389Z,15.52
2018-08-12T01:33:53.393Z,15.42
2018-08-12T01:34:53.391Z,15.44
2018-08-12T01:35:53.443Z,15.44
2018-08-12T01:36:53.388Z,15.44
2018-08-12T01:37:53.388Z,15.42
2018-08-12T01:38:53.387Z,15.46
2018-08-12T01:39:53.388Z,15.46
2018-08-12T01:40:53.404Z,15.39
2018-08-12T01:41:53.386Z,15.43
2018-08-12T01:42:53.386Z,15.40
2018-08-12T01:43:53.388Z,15.36
2018-08-12T01:44:53.392Z,15.29
2018-08-12T01:45:53.386Z,15.29
2018-08-12T01:46:53.388Z,15.43
2018-08-12T01:47:53.384Z,15.40
2018-08-12T01:48:53.383Z,15.25
2018-08-12T01:49:53.383Z,15.37
2018-08-12T01:50:53.383Z,15.35
2018-08-12T01:51:53.384Z,15.24
2018-08-12T01:52:53.381Z,15.28
2018-08-12T01:53:53.384Z,15.22
2018-08-12T01:54:53.380Z,15.22
2018-08-12T01:55:53.380Z,15.27
2018-08-12T01:56:53.380Z,15.24
2018-08-12T01:57:53.381Z,15.22
2018-08-12T01:58:53.384Z,15.19
2018-08-12T01:59:53.391Z,15.14
2018-08-12T02:00:53.376Z,15.18
2018-08-12T02:01:53.415Z,15.17
2018-08-12T02:02:53.376Z,15.14
2018-08-12T02:03:53.376Z,15.10
2018-08-12T02:04:53.701Z,15.10
2018-08-12T02:05:53.373Z,15.10
2018-08-12T02:06:53.374Z,15.11
2018-08-12T02:07:53.373Z,15.10
2018-08-12T02:08:53.372Z,15.11
2018-08-12T02:09:53.371Z,15.04
2018-08-12T02:10:53.371Z,15.04
2018-08-12T02:11:53.370Z,14.99
2018-08-12T02:12:53.369Z,15.02
2018-08-12T02:13:53.369Z,14.97
2018-08-12T02:14:53.369Z,14.91
2018-08-12T02:15:53.371Z,14.88
2018-08-12T02:16:53.369Z,14.89
2018-08-12T02:17:53.366Z,14.86
2018-08-12T02:18:53.366Z,14.84
2018-08-12T02:19:53.368Z,14.86
2018-08-12T02:20:53.363Z,14.89
2018-08-12T02:21:53.364Z,14.78
2018-08-12T02:22:53.363Z,14.92
2018-08-12T02:23:53.364Z,14.92
2018-08-12T02:24:53.364Z,14.94
2018-08-12T02:25:53.361Z,14.94
2018-08-12T02:26:53.360Z,14.88
2018-08-12T02:27:53.359Z,14.92
2018-08-12T02:28:53.358Z,14.88
2018-08-12T02:29:53.358Z,14.82
2018-08-12T02:30:53.362Z,14.86
2018-08-12T02:31:53.359Z,14.84
2018-08-12T02:32:53.355Z,14.79
2018-08-12T02:33:53.358Z,14.85
2018-08-12T02:34:53.356Z,14.77
2018-08-12T02:35:54.111Z,14.89
2018-08-12T02:36:53.352Z,14.84
2018-08-12T02:37:53.353Z,14.91
2018-08-12T02:38:53.361Z,14.84
2018-08-12T02:39:53.351Z,14.84
2018-08-12T02:40:53.348Z,14.69
2018-08-12T02:41:53.357Z,14.78
2018-08-12T02:42:53.347Z,14.78
2018-08-12T02:43:53.348Z,14.77
2018-08-12T02:44:53.345Z,14.79
2018-08-12T02:45:53.345Z,14.81
2018-08-12T02:46:53.345Z,14.77
2018-08-12T02:47:53.344Z,14.77
2018-08-12T02:48:53.343Z,14.78
2018-08-12T02:49:53.342Z,14.77
2018-08-12T02:50:53.343Z,14.77
2018-08-12T02:51:53.340Z,14.81
2018-08-12T02:52:53.357Z,14.81
2018-08-12T02:53:53.339Z,14.77
2018-08-12T02:54:53.338Z,14.79
2018-08-12T02:55:53.384Z,14.78
2018-08-12T02:56:53.338Z,14.66
2018-08-12T02:57:53.336Z,14.63
2018-08-12T02:58:53.337Z,14.62
2018-08-12T02:59:53.333Z,14.63
2018-08-12T03:00:53.334Z,14.59
2018-08-12T03:01:53.332Z,14.63
2018-08-12T03:02:53.331Z,14.68
2018-08-12T03:03:53.330Z,14.63
2018-08-12T03:04:53.329Z,14.68
2018-08-12T03:05:53.329Z,14.62
2018-08-12T03:06:53.328Z,14.59
2018-08-12T03:07:53.335Z,14.68
2018-08-12T03:08:53.325Z,14.60
2018-08-12T03:09:53.334Z,14.66
2018-08-12T03:10:53.350Z,14.63
2018-08-12T03:11:53.326Z,14.70
2018-08-12T03:12:53.321Z,14.65
2018-08-12T03:13:53.320Z,14.62
2018-08-12T03:14:53.321Z,14.62
2018-08-12T03:15:53.321Z,14.62
2018-08-12T03:16:53.327Z,14.63
2018-08-12T03:17:53.317Z,14.54
2018-08-12T03:18:53.316Z,14.55
2018-08-12T03:19:53.314Z,14.55
2018-08-12T03:20:53.313Z,14.47
2018-08-12T03:21:53.316Z,14.48
2018-08-12T03:22:53.315Z,14.53
2018-08-12T03:23:53.312Z,14.47
2018-08-12T03:24:53.314Z,14.48
2018-08-12T03:25:53.309Z,14.53
2018-08-12T03:26:53.307Z,14.47
2018-08-12T03:27:53.309Z,14.47
2018-08-12T03:28:53.304Z,14.51
2018-08-12T03:29:53.310Z,14.55
2018-08-12T03:30:53.304Z,14.47
2018-08-12T03:31:53.306Z,14.40
2018-08-12T03:32:53.302Z,14.41
2018-08-12T03:33:53.299Z,14.36
2018-08-12T03:34:53.304Z,14.32
2018-08-12T03:35:53.318Z,14.36
2018-08-12T03:36:53.296Z,14.37
2018-08-12T03:37:53.297Z,14.40
2018-08-12T03:38:53.294Z,14.30
2018-08-12T03:39:53.313Z,14.32
2018-08-12T03:40:53.295Z,14.33
2018-08-12T03:41:53.293Z,14.32
2018-08-12T03:42:53.290Z,14.23
2018-08-12T03:43:53.290Z,14.33
2018-08-12T03:44:53.288Z,14.36
2018-08-12T03:45:53.287Z,14.35
2018-08-12T03:46:53.286Z,14.23
2018-08-12T03:47:53.290Z,14.32
2018-08-12T03:48:53.322Z,14.25
2018-08-12T03:49:53.282Z,14.23
2018-08-12T03:50:53.283Z,14.30
2018-08-12T03:51:53.281Z,14.30
2018-08-12T03:52:53.279Z,14.29
2018-08-12T03:53:53.280Z,14.32
2018-08-12T03:54:53.277Z,14.26
2018-08-12T03:55:53.278Z,14.33
2018-08-12T03:56:53.275Z,14.26
2018-08-12T03:57:53.277Z,14.20
2018-08-12T03:58:53.273Z,14.23
2018-08-12T03:59:53.272Z,14.25
2018-08-12T04:00:53.290Z,14.18
2018-08-12T04:01:53.269Z,14.20
2018-08-12T04:02:53.271Z,14.25
2018-08-12T04:03:53.272Z,14.23
2018-08-12T04:04:53.265Z,14.17
2018-08-12T04:05:53.265Z,14.25
2018-08-12T04:06:53.264Z,14.17
2018-08-12T04:07:53.344Z,14.07
2018-08-12T04:08:53.261Z,14.11
2018-08-12T04:09:53.259Z,14.10
2018-08-12T04:10:53.262Z,14.20
2018-08-12T04:11:53.257Z,14.20
2018-08-12T04:12:53.255Z,14.22
2018-08-12T04:13:53.255Z,14.20
2018-08-12T04:14:53.254Z,14.25
2018-08-12T04:15:53.253Z,14.22
2018-08-12T04:16:53.249Z,14.20
2018-08-12T04:17:53.250Z,14.08
2018-08-12T04:18:53.279Z,14.12
2018-08-12T04:19:53.247Z,14.10
2018-08-12T04:20:53.244Z,14.14
2018-08-12T04:21:53.244Z,14.12
2018-08-12T04:22:53.243Z,14.10
2018-08-12T04:23:53.243Z,14.08
2018-08-12T04:24:53.241Z,14.08
2018-08-12T04:25:53.239Z,14.14
2018-08-12T04:26:53.237Z,14.14
2018-08-12T04:27:53.236Z,14.11
2018-08-12T04:28:53.238Z,14.12
2018-08-12T04:29:53.264Z,14.12
2018-08-12T04:30:53.233Z,14.11
2018-08-12T04:31:53.234Z,14.14
2018-08-12T04:32:53.229Z,14.17
2018-08-12T04:33:53.232Z,13.99
2018-08-12T04:34:53.230Z,14.10
2018-08-12T04:35:53.227Z,14.10
2018-08-12T04:36:53.224Z,14.11
2018-08-12T04:37:53.236Z,14.10
2018-08-12T04:38:53.765Z,14.08
2018-08-12T04:39:53.222Z,14.10
2018-08-12T04:40:53.221Z,14.25
2018-08-12T04:41:53.219Z,14.23
2018-08-12T04:42:53.217Z,14.22
2018-08-12T04:43:53.215Z,14.33
2018-08-12T04:44:53.219Z,14.50
2018-08-12T04:45:53.238Z,14.63
2018-08-12T04:46:53.216Z,14.62
2018-08-12T04:47:53.212Z,14.60
2018-08-12T04:48:53.209Z,14.81
2018-08-12T04:49:53.209Z,14.91
2018-08-12T04:50:53.210Z,14.96
2018-08-12T04:51:53.205Z,15.07
2018-08-12T04:52:53.205Z,15.27
2018-08-12T04:53:53.203Z,15.28
2018-08-12T04:54:53.204Z,15.47
2018-08-12T04:55:53.202Z,15.64
2018-08-12T04:56:53.200Z,15.64
2018-08-12T04:57:53.202Z,15.64
2018-08-12T04:58:53.200Z,15.65
2018-08-12T04:59:53.200Z,15.64
2018-08-12T05:00:53.198Z,15.72
2018-08-12T05:01:53.198Z,15.73
2018-08-12T05:02:53.198Z,15.68
2018-08-12T05:03:53.201Z,15.65
2018-08-12T05:04:53.195Z,15.58
2018-08-12T05:05:53.194Z,15.64
2018-08-12T05:06:53.201Z,15.57
2018-08-12T05:07:53.195Z,15.58
2018-08-12T05:08:53.195Z,15.59
2018-08-12T05:09:54.151Z,15.62
2018-08-12T05:10:53.195Z,15.58
2018-08-12T05:11:53.194Z,15.61
2018-08-12T05:12:53.190Z,15.55
2018-08-12T05:13:53.191Z,15.57
2018-08-12T05:14:53.192Z,15.65
2018-08-12T05:15:53.189Z,15.61
2018-08-12T05:16:53.189Z,15.59
2018-08-12T05:17:53.191Z,15.67
2018-08-12T05:18:53.189Z,15.59
2018-08-12T05:19:53.189Z,15.61
2018-08-12T05:20:53.188Z,15.67
2018-08-12T05:21:53.189Z,15.68
2018-08-12T05:22:53.188Z,15.76
2018-08-12T05:23:53.187Z,15.70
2018-08-12T05:24:53.188Z,15.80
2018-08-12T05:25:53.186Z,15.80
2018-08-12T05:26:53.184Z,15.91
2018-08-12T05:27:53.184Z,15.95
2018-08-12T05:28:53.184Z,16.09
2018-08-12T05:29:53.187Z,16.32
2018-08-12T05:30:53.186Z,16.53
2018-08-12T05:31:53.185Z,16.68
2018-08-12T05:32:53.182Z,16.93
2018-08-12T05:33:53.186Z,17.04
2018-08-12T05:34:53.185Z,17.51
2018-08-12T05:35:53.185Z,17.86
2018-08-12T05:36:53.185Z,18.25
2018-08-12T05:37:53.183Z,18.31
2018-08-12T05:38:53.183Z,18.28
2018-08-12T05:39:53.183Z,17.97
2018-08-12T05:40:53.188Z,17.86
2018-08-12T05:41:53.185Z,17.90
2018-08-12T05:42:53.186Z,17.98
2018-08-12T05:43:53.188Z,18.16
2018-08-12T05:44:53.192Z,18.33
2018-08-12T05:45:53.188Z,18.52
2018-08-12T05:46:53.192Z,18.60
2018-08-12T05:47:53.192Z,18.56
2018-08-12T05:48:53.193Z,18.59
2018-08-12T05:49:53.192Z,18.75
2018-08-12T05:50:53.199Z,18.56
2018-08-12T05:51:53.198Z,18.37
2018-08-12T05:52:53.195Z,18.18
2018-08-12T05:53:53.197Z,18.00
2018-08-12T05:54:53.201Z,17.83
2018-08-12T05:55:53.200Z,17.68
2018-08-12T05:56:53.203Z,17.67
2018-08-12T05:57:53.204Z,17.56
2018-08-12T05:58:53.206Z,17.49
2018-08-12T05:59:53.204Z,17.44
2018-08-12T06:00:53.206Z,17.34
2018-08-12T06:01:53.206Z,17.34
2018-08-12T06:02:53.278Z,17.36
2018-08-12T06:03:53.208Z,17.36
2018-08-12T06:04:53.209Z,17.33
2018-08-12T06:05:53.210Z,17.31
2018-08-12T06:06:53.211Z,17.27
2018-08-12T06:07:53.216Z,17.31
2018-08-12T06:08:53.234Z,17.33
2018-08-12T06:09:53.213Z,17.27
2018-08-12T06:10:53.214Z,17.29
2018-08-12T06:11:53.215Z,17.31
2018-08-12T06:12:53.217Z,17.27
2018-08-12T06:13:53.217Z,17.36
2018-08-12T06:14:53.219Z,17.30
2018-08-12T06:15:53.221Z,17.29
2018-08-12T06:16:53.219Z,17.30
2018-08-12T06:17:53.219Z,17.24
2018-08-12T06:18:53.221Z,17.29
2018-08-12T06:19:53.222Z,17.30
2018-08-12T06:20:53.222Z,17.26
2018-08-12T06:21:53.226Z,17.27
2018-08-12T06:22:53.225Z,17.29
2018-08-12T06:23:53.224Z,17.27
2018-08-12T06:24:53.227Z,17.24
2018-08-12T06:25:53.226Z,17.24
2018-08-12T06:26:53.227Z,17.31
2018-08-12T06:27:53.227Z,17.31
2018-08-12T06:28:53.230Z,17.34
2018-08-12T06:29:53.228Z,17.39
2018-08-12T06:30:53.229Z,17.42
2018-08-12T06:31:53.238Z,17.44
2018-08-12T06:32:53.233Z,17.44
2018-08-12T06:33:53.231Z,17.42
2018-08-12T06:34:53.232Z,17.44
2018-08-12T06:35:53.233Z,17.42
2018-08-12T06:36:53.233Z,17.48
2018-08-12T06:37:53.233Z,17.38
2018-08-12T06:38:53.245Z,17.51
2018-08-12T06:39:53.252Z,17.48
2018-08-12T06:40:53.261Z,17.48
2018-08-12T06:41:53.360Z,17.51
2018-08-12T06:42:53.237Z,17.51
2018-08-12T06:43:53.238Z,17.52
2018-08-12T06:44:53.238Z,17.54
2018-08-12T06:45:53.240Z,17.49
2018-08-12T06:46:53.239Z,17.56
2018-08-12T06:47:53.240Z,17.59
2018-08-12T06:48:53.256Z,17.49
2018-08-12T06:49:53.241Z,17.49
2018-08-12T06:50:53.243Z,17.52
2018-08-12T06:51:53.272Z,17.59
2018-08-12T06:52:53.243Z,17.54
2018-08-12T06:53:53.243Z,17.49
2018-08-12T06:54:53.244Z,17.54
2018-08-12T06:55:53.245Z,17.59
2018-08-12T06:56:53.248Z,17.52
2018-08-12T06:57:53.245Z,17.57
2018-08-12T06:58:53.246Z,17.65
2018-08-12T06:59:53.249Z,17.59
2018-08-12T07:00:53.248Z,17.67
2018-08-12T07:01:53.248Z,17.57
2018-08-12T07:02:53.251Z,17.60
2018-08-12T07:03:53.249Z,17.63
2018-08-12T07:04:53.252Z,17.76
2018-08-12T07:05:53.258Z,17.71
2018-08-12T07:06:53.252Z,17.71
2018-08-12T07:07:53.251Z,17.76
2018-08-12T07:08:53.252Z,17.71
2018-08-12T07:09:53.254Z,17.80
2018-08-12T07:10:53.253Z,17.82
2018-08-12T07:11:53.256Z,17.80
2018-08-12T07:12:53.780Z,17.89
2018-08-12T07:13:53.255Z,17.87
2018-08-12T07:14:53.256Z,17.92
2018-08-12T07:15:53.258Z,17.94
2018-08-12T07:16:53.255Z,17.98
2018-08-12T07:17:53.257Z,17.98
2018-08-12T07:18:53.258Z,18.07
2018-08-12T07:19:53.261Z,18.01
2018-08-12T07:20:53.257Z,18.13
2018-08-12T07:21:53.259Z,18.13
2018-08-12T07:22:53.260Z,18.13
2018-08-12T07:23:53.260Z,18.19
2018-08-12T07:24:53.261Z,18.26
2018-08-12T07:25:53.262Z,18.25
2018-08-12T07:26:53.262Z,18.35
2018-08-12T07:27:53.266Z,18.35
2018-08-12T07:28:53.270Z,18.41
2018-08-12T07:29:53.269Z,18.41
2018-08-12T07:30:53.267Z,18.43
2018-08-12T07:31:53.267Z,18.43
2018-08-12T07:32:53.302Z,18.37
2018-08-12T07:33:53.268Z,18.52
2018-08-12T07:34:53.270Z,18.58
2018-08-12T07:35:53.274Z,18.58
2018-08-12T07:36:53.274Z,18.68
2018-08-12T07:37:53.271Z,18.73
2018-08-12T07:38:53.281Z,18.78
2018-08-12T07:39:53.274Z,18.74
2018-08-12T07:40:53.273Z,18.75
2018-08-12T07:41:53.276Z,18.81
2018-08-12T07:42:53.275Z,18.80
2018-08-12T07:43:54.164Z,18.96
2018-08-12T07:44:53.277Z,18.95
2018-08-12T07:45:53.286Z,18.92
2018-08-12T07:46:53.282Z,18.96
2018-08-12T07:47:53.280Z,19.09
2018-08-12T07:48:53.365Z,19.04
2018-08-12T07:49:53.283Z,18.98
2018-08-12T07:50:53.283Z,19.14
2018-08-12T07:51:53.286Z,19.16
2018-08-12T07:52:53.289Z,19.18
2018-08-12T07:53:53.290Z,19.21
2018-08-12T07:54:53.289Z,19.19
2018-08-12T07:55:53.348Z,19.26
2018-08-12T07:56:53.292Z,19.27
2018-08-12T07:57:53.290Z,19.37
2018-08-12T07:58:53.291Z,19.34
2018-08-12T07:59:53.293Z,19.44
2018-08-12T08:00:53.293Z,19.49
2018-08-12T08:01:53.296Z,19.58
2018-08-12T08:02:53.298Z,19.56
2018-08-12T08:03:53.301Z,19.69
2018-08-12T08:04:53.300Z,19.73
2018-08-12T08:05:53.300Z,19.67
2018-08-12T08:06:53.304Z,19.77
2018-08-12T08:07:53.306Z,19.79
2018-08-12T08:08:53.304Z,19.88
2018-08-12T08:09:53.305Z,19.99
2018-08-12T08:10:53.307Z,19.89
2018-08-12T08:11:53.310Z,20.06
2018-08-12T08:12:53.309Z,20.07
2018-08-12T08:13:53.312Z,20.11
2018-08-12T08:14:53.314Z,20.22
2018-08-12T08:15:53.318Z,20.24
2018-08-12T08:16:53.316Z,20.39
2018-08-12T08:17:53.318Z,20.34
2018-08-12T08:18:53.319Z,20.48
2018-08-12T08:19:53.347Z,20.40
2018-08-12T08:20:53.322Z,20.50
2018-08-12T08:21:53.323Z,20.59
2018-08-12T08:22:53.331Z,20.63
2018-08-12T08:23:53.328Z,20.66
2018-08-12T08:24:53.329Z,20.74
2018-08-12T08:25:53.409Z,20.77
2018-08-12T08:26:53.332Z,20.75
2018-08-12T08:27:53.334Z,20.88
2018-08-12T08:28:53.336Z,20.84
2018-08-12T08:29:53.338Z,20.97
2018-08-12T08:30:53.339Z,20.99
2018-08-12T08:31:53.546Z,21.05
2018-08-12T08:32:53.343Z,21.11
2018-08-12T08:33:53.346Z,21.18
2018-08-12T08:34:53.348Z,21.21
2018-08-12T08:35:53.351Z,21.21
2018-08-12T08:36:53.354Z,21.24
2018-08-12T08:37:53.358Z,21.32
2018-08-12T08:38:53.360Z,21.33
2018-08-12T08:39:53.361Z,21.48
2018-08-12T08:40:53.361Z,21.52
2018-08-12T08:41:53.362Z,21.62
2018-08-12T08:42:53.366Z,21.75
2018-08-12T08:43:53.429Z,21.88
2018-08-12T08:44:53.372Z,22.02
2018-08-12T08:45:53.372Z,22.11
2018-08-12T08:46:53.379Z,22.20
2018-08-12T08:47:53.380Z,22.33
2018-08-12T08:48:53.380Z,22.47
2018-08-12T08:49:53.441Z,22.51
2018-08-12T08:50:53.386Z,22.70
2018-08-12T08:51:53.392Z,22.75
2018-08-12T08:52:53.391Z,22.84
2018-08-12T08:53:53.395Z,22.94
2018-08-12T08:54:53.397Z,22.93
2018-08-12T08:55:53.455Z,23.09
2018-08-12T08:56:53.401Z,23.23
2018-08-12T08:57:53.411Z,23.31
2018-08-12T08:58:53.409Z,23.61
2018-08-12T08:59:53.416Z,24.02
2018-08-12T09:00:53.416Z,24.53
2018-08-12T09:01:53.417Z,25.31
2018-08-12T09:02:53.424Z,26.05
2018-08-12T09:03:53.425Z,26.65
2018-08-12T09:04:53.428Z,27.48
2018-08-12T09:05:53.434Z,28.14
2018-08-12T09:06:53.440Z,28.63
2018-08-12T09:07:53.501Z,29.23
2018-08-12T09:08:53.606Z,29.57
2018-08-12T09:09:53.453Z,29.97
2018-08-12T09:10:53.455Z,30.23
2018-08-12T09:11:53.461Z,30.57
2018-08-12T09:12:53.466Z,30.96
2018-08-12T09:13:53.472Z,31.33
2018-08-12T09:14:53.477Z,31.66
2018-08-12T09:15:53.484Z,31.97
2018-08-12T09:16:53.489Z,32.45
2018-08-12T09:17:53.494Z,32.68
2018-08-12T09:18:53.503Z,32.82
2018-08-12T09:19:53.509Z,32.87
2018-08-12T09:20:53.528Z,32.78
2018-08-12T09:21:53.523Z,32.55
2018-08-12T09:22:53.528Z,32.04
2018-08-12T09:23:53.544Z,31.73
2018-08-12T09:24:53.543Z,31.76
2018-08-12T09:25:53.548Z,31.90
2018-08-12T09:26:53.556Z,31.96
2018-08-12T09:27:53.568Z,31.93
2018-08-12T09:28:53.581Z,31.73
2018-08-12T09:29:53.585Z,31.44
2018-08-12T09:30:53.587Z,31.15
2018-08-12T09:31:53.593Z,30.46
2018-08-12T09:32:53.599Z,30.03
2018-08-12T09:33:53.608Z,29.76
2018-08-12T09:34:53.637Z,29.36
2018-08-12T09:35:53.621Z,29.05
2018-08-12T09:36:53.628Z,28.59
2018-08-12T09:37:53.634Z,28.30
2018-08-12T09:38:53.642Z,28.08
2018-08-12T09:39:53.648Z,27.92
2018-08-12T09:40:53.655Z,27.77
2018-08-12T09:41:53.661Z,27.67
2018-08-12T09:42:53.669Z,27.67
2018-08-12T09:43:53.675Z,27.59
2018-08-12T09:44:53.679Z,27.47
2018-08-12T09:45:55.607Z,27.47
2018-08-12T09:46:53.770Z,27.49
2018-08-12T09:47:53.698Z,27.37
2018-08-12T09:48:53.704Z,27.27
2018-08-12T09:49:53.710Z,27.30
2018-08-12T09:50:53.714Z,27.14
2018-08-12T09:51:53.800Z,27.03
2018-08-12T09:52:53.725Z,26.99
2018-08-12T09:53:53.738Z,26.92
2018-08-12T09:54:53.737Z,26.84
2018-08-12T09:55:53.743Z,26.80
2018-08-12T09:56:53.746Z,26.83
2018-08-12T09:57:53.752Z,26.77
2018-08-12T09:58:53.760Z,26.88
2018-08-12T09:59:53.774Z,26.73
2018-08-12T10:00:53.778Z,26.70
2018-08-12T10:01:53.774Z,26.71
2018-08-12T10:02:53.780Z,26.66
2018-08-12T10:03:53.785Z,26.53
2018-08-12T10:04:53.789Z,26.47
2018-08-12T10:05:53.796Z,26.40
2018-08-12T10:06:53.799Z,26.36
2018-08-12T10:07:53.806Z,26.43
2018-08-12T10:08:53.809Z,26.41
2018-08-12T10:09:53.820Z,26.41
2018-08-12T10:10:53.824Z,26.36
2018-08-12T10:11:53.825Z,26.29
2018-08-12T10:12:53.832Z,26.33
2018-08-12T10:13:53.867Z,26.34
2018-08-12T10:14:53.839Z,26.33
2018-08-12T10:15:53.845Z,26.34
2018-08-12T10:16:53.849Z,26.28
2018-08-12T10:17:54.171Z,26.29
2018-08-12T10:18:53.859Z,26.36
2018-08-12T10:19:53.864Z,26.28
2018-08-12T10:20:53.867Z,26.29
2018-08-12T10:21:53.874Z,26.28
2018-08-12T10:22:53.889Z,26.25
2018-08-12T10:23:53.882Z,26.15
2018-08-12T10:24:53.887Z,26.18
2018-08-12T10:25:53.894Z,26.03
2018-08-12T10:26:53.905Z,26.00
2018-08-12T10:27:53.903Z,25.99
2018-08-12T10:28:53.925Z,26.05
2018-08-12T10:29:53.912Z,26.02
2018-08-12T10:30:53.922Z,25.95
2018-08-12T10:31:53.937Z,25.99
2018-08-12T10:32:53.927Z,25.99
2018-08-12T10:33:53.928Z,26.02
2018-08-12T10:34:53.934Z,25.95
2018-08-12T10:35:53.939Z,26.16
2018-08-12T10:36:53.942Z,26.19
2018-08-12T10:37:53.947Z,26.45
2018-08-12T10:38:53.952Z,27.18
2018-08-12T10:39:53.958Z,28.27
2018-08-12T10:40:53.963Z,29.41
2018-08-12T10:41:53.970Z,30.59
2018-08-12T10:42:53.977Z,31.59
2018-08-12T10:43:54.032Z,32.56
2018-08-12T10:44:53.987Z,33.43
2018-08-12T10:45:53.994Z,34.27
2018-08-12T10:46:54.003Z,35.10
2018-08-12T10:47:54.009Z,35.79
2018-08-12T10:48:54.615Z,36.40
2018-08-12T10:49:54.025Z,37.03
2018-08-12T10:50:54.084Z,37.53
2018-08-12T10:51:54.046Z,37.87
2018-08-12T10:52:54.054Z,38.26
2018-08-12T10:53:54.064Z,38.45
2018-08-12T10:54:54.075Z,38.73
2018-08-12T10:55:54.086Z,38.91
2018-08-12T10:56:54.097Z,39.06
2018-08-12T10:57:54.113Z,39.18
2018-08-12T10:58:54.121Z,39.40
2018-08-12T10:59:54.133Z,39.56
2018-08-12T11:00:54.147Z,39.53
2018-08-12T11:01:54.159Z,39.63
2018-08-12T11:02:54.180Z,39.59
2018-08-12T11:03:54.187Z,39.60
2018-08-12T11:04:54.197Z,39.67
2018-08-12T11:05:54.217Z,39.99
2018-08-12T11:06:54.225Z,40.26
2018-08-12T11:07:54.244Z,40.43
2018-08-12T11:08:54.263Z,40.68
2018-08-12T11:09:54.269Z,40.82
2018-08-12T11:10:54.283Z,41.00
2018-08-12T11:11:54.300Z,41.03
2018-08-12T11:12:54.316Z,41.31
2018-08-12T11:13:54.333Z,41.45
2018-08-12T11:14:54.344Z,41.37
2018-08-12T11:15:54.426Z,41.44
2018-08-12T11:16:54.373Z,41.47
2018-08-12T11:17:54.391Z,41.44
2018-08-12T11:18:54.409Z,41.02
2018-08-12T11:19:55.026Z,40.35
2018-08-12T11:20:54.437Z,39.65
2018-08-12T11:21:54.452Z,38.82
2018-08-12T11:22:54.470Z,37.84
2018-08-12T11:23:54.506Z,37.17
2018-08-12T11:24:54.496Z,36.31
2018-08-12T11:25:54.521Z,35.86
2018-08-12T11:26:54.524Z,35.30
2018-08-12T11:27:54.542Z,34.86
2018-08-12T11:28:54.577Z,34.48
2018-08-12T11:29:54.563Z,34.14
2018-08-12T11:30:54.571Z,33.92
2018-08-12T11:31:54.585Z,33.49
2018-08-12T11:32:54.594Z,33.30
2018-08-12T11:33:54.605Z,33.04
2018-08-12T11:34:54.725Z,32.77
2018-08-12T11:35:54.630Z,32.49
2018-08-12T11:36:54.634Z,32.27
2018-08-12T11:37:54.643Z,32.11
2018-08-12T11:38:54.903Z,31.92
2018-08-12T11:39:54.686Z,31.70
2018-08-12T11:40:54.670Z,31.58
2018-08-12T11:41:54.692Z,31.39
2018-08-12T11:42:54.693Z,31.27
2018-08-12T11:43:54.759Z,31.20
2018-08-12T11:44:54.705Z,31.07
2018-08-12T11:45:54.716Z,31.03
2018-08-12T11:46:54.725Z,30.96
2018-08-12T11:47:54.729Z,30.87
2018-08-12T11:48:54.737Z,30.85
2018-08-12T11:49:54.746Z,30.90
2018-08-12T11:50:55.479Z,30.80
2018-08-12T11:51:54.761Z,30.66
2018-08-12T11:52:54.767Z,30.63
2018-08-12T11:53:54.787Z,30.65
2018-08-12T11:54:54.783Z,30.62
2018-08-12T11:55:54.793Z,30.44
2018-08-12T11:56:54.843Z,30.32
2018-08-12T11:57:54.818Z,30.37
2018-08-12T11:58:54.813Z,30.43
2018-08-12T11:59:54.819Z,30.34
2018-08-12T12:00:54.825Z,30.35
2018-08-12T12:01:54.840Z,30.34
2018-08-12T12:02:54.845Z,30.18
2018-08-12T12:03:54.846Z,30.25
2018-08-12T12:04:54.860Z,30.21
2018-08-12T12:05:54.885Z,30.08
2018-08-12T12:06:54.875Z,30.03
2018-08-12T12:07:54.875Z,30.08
2018-08-12T12:08:54.928Z,29.94
2018-08-12T12:09:54.893Z,29.97
2018-08-12T12:10:54.897Z,29.90
2018-08-12T12:11:54.901Z,29.87
2018-08-12T12:12:54.920Z,29.94
2018-08-12T12:13:54.916Z,29.82
2018-08-12T12:14:54.922Z,29.84
2018-08-12T12:15:54.956Z,29.76
2018-08-12T12:16:54.943Z,29.63
2018-08-12T12:17:54.940Z,29.57
2018-08-12T12:18:54.965Z,29.51
2018-08-12T12:19:54.953Z,29.50
2018-08-12T12:20:54.958Z,29.50
2018-08-12T12:21:55.829Z,29.61
2018-08-12T12:22:55.067Z,29.57
2018-08-12T12:23:54.980Z,29.59
2018-08-12T12:24:54.983Z,29.42
2018-08-12T12:25:54.994Z,29.45
2018-08-12T12:26:54.998Z,29.50
2018-08-12T12:27:55.003Z,29.59
2018-08-12T12:28:55.013Z,29.56
2018-08-12T12:29:55.020Z,29.53
2018-08-12T12:30:55.022Z,29.56
2018-08-12T12:31:55.054Z,29.56
2018-08-12T12:32:55.033Z,29.56
2018-08-12T12:33:55.041Z,29.49
2018-08-12T12:34:55.052Z,29.56
2018-08-12T12:35:55.052Z,29.47
2018-08-12T12:36:55.059Z,29.49
2018-08-12T12:37:55.100Z,29.42
2018-08-12T12:38:55.072Z,29.51
2018-08-12T12:39:55.077Z,29.39
2018-08-12T12:40:55.082Z,29.36
2018-08-12T12:41:55.090Z,29.36
2018-08-12T12:42:55.130Z,29.38
2018-08-12T12:43:55.102Z,29.31
2018-08-12T12:44:55.107Z,29.27
2018-08-12T12:45:55.113Z,29.35
2018-08-12T12:46:55.122Z,29.36
2018-08-12T12:47:55.126Z,29.36
2018-08-12T12:48:55.134Z,29.38
2018-08-12T12:49:55.140Z,29.36
2018-08-12T12:50:55.144Z,29.38
2018-08-12T12:51:55.150Z,29.47
2018-08-12T12:52:55.157Z,29.36